createdAt,value
2023-03-20T00:00:41.314Z,8.60
2023-03-20T00:03:55.967Z,8.59
2023-03-20T00:07:10.092Z,8.63
2023-03-20T00:10:23.978Z,8.68
2023-03-20T00:13:36.082Z,8.72
2023-03-20T00:16:51.107Z,8.77
2023-03-20T00:20:03.376Z,8.77
2023-03-20T00:23:15.392Z,8.87
2023-03-20T00:26:30.105Z,8.94
2023-03-20T00:29:42.671Z,8.97
2023-03-20T00:32:55.244Z,8.99
2023-03-20T00:36:07.733Z,9.04
2023-03-20T00:39:19.984Z,9.07
2023-03-20T00:42:32.239Z,9.11
2023-03-20T00:45:44.403Z,9.13
2023-03-20T00:48:57.034Z,9.09
2023-03-20T00:52:12.902Z,9.01
2023-03-20T00:55:28.192Z,8.91
2023-03-20T00:58:40.416Z,8.81
2023-03-20T01:01:52.959Z,8.73
2023-03-20T01:05:05.917Z,8.64
2023-03-20T01:08:27.619Z,8.61
2023-03-20T01:11:40.291Z,8.50
2023-03-20T01:14:56.801Z,8.31
2023-03-20T01:18:09.095Z,8.19
2023-03-20T01:21:21.492Z,8.12
2023-03-20T01:24:33.543Z,8.04
2023-03-20T01:27:48.474Z,8.04
2023-03-20T01:31:00.801Z,7.99
2023-03-20T01:34:16.566Z,7.87
2023-03-20T01:37:33.381Z,7.80
2023-03-20T01:40:55.476Z,7.72
2023-03-20T01:44:16.302Z,7.61
2023-03-20T01:47:30.608Z,7.46
2023-03-20T01:50:45.352Z,7.38
2023-03-20T01:54:03.208Z,7.33
2023-03-20T01:57:21.697Z,7.26
2023-03-20T02:00:34.486Z,7.19
2023-03-20T02:03:52.003Z,7.11
2023-03-20T02:07:06.586Z,7.03
2023-03-20T02:10:25.229Z,6.98
2023-03-20T02:13:45.693Z,6.97
2023-03-20T02:16:59.172Z,7.00
2023-03-20T02:20:22.332Z,6.95
2023-03-20T02:24:21.426Z,6.85
2023-03-20T02:27:43.140Z,6.84
2023-03-20T02:31:21.507Z,6.82
2023-03-20T02:35:31.649Z,6.78
2023-03-20T02:39:06.714Z,6.83
2023-03-20T02:42:26.712Z,6.79
2023-03-20T02:45:45.922Z,6.79
2023-03-20T02:49:05.118Z,6.70
2023-03-20T02:52:23.062Z,6.68
2023-03-20T02:55:42.026Z,6.61
2023-03-20T02:59:00.678Z,6.61
2023-03-20T03:02:17.390Z,6.63
2023-03-20T03:05:35.226Z,6.56
2023-03-20T03:08:52.616Z,6.47
2023-03-20T03:12:09.683Z,6.40
2023-03-20T03:15:27.735Z,6.38
2023-03-20T03:18:44.129Z,6.32
2023-03-20T03:21:56.913Z,6.29
2023-03-20T03:25:11.236Z,6.27
2023-03-20T03:28:30.509Z,6.31
2023-03-20T03:31:44.015Z,6.38
2023-03-20T03:34:56.741Z,6.34
2023-03-20T03:38:14.504Z,6.36
2023-03-20T03:41:33.439Z,6.30
2023-03-20T03:44:53.216Z,6.29
2023-03-20T03:48:10.706Z,6.27
2023-03-20T03:51:27.666Z,6.25
2023-03-20T03:54:48.762Z,6.24
2023-03-20T03:58:16.291Z,6.20
2023-03-20T04:01:35.036Z,6.10
2023-03-20T04:04:52.509Z,6.03
2023-03-20T04:08:08.561Z,5.98
2023-03-20T04:11:25.320Z,5.99
2023-03-20T04:14:37.623Z,5.95
2023-03-20T04:17:50.383Z,6.03
2023-03-20T04:21:03.315Z,6.05
2023-03-20T04:24:16.150Z,6.09
2023-03-20T04:27:28.864Z,6.10
2023-03-20T04:30:41.478Z,6.08
2023-03-20T04:33:53.667Z,6.07
2023-03-20T04:37:14.173Z,6.11
2023-03-20T04:40:31.699Z,6.09
2023-03-20T04:43:44.551Z,6.07
2023-03-20T04:46:56.690Z,6.12
2023-03-20T04:50:11.897Z,6.18
2023-03-20T04:53:27.077Z,6.25
2023-03-20T04:56:39.426Z,6.31
2023-03-20T04:59:53.912Z,6.40
2023-03-20T05:03:06.378Z,6.39
2023-03-20T05:06:18.974Z,6.36
2023-03-20T05:09:32.134Z,6.34
2023-03-20T05:12:47.978Z,6.40
2023-03-20T05:16:18.924Z,6.47
2023-03-20T05:19:33.094Z,6.56
2023-03-20T05:22:47.832Z,6.67
2023-03-20T05:26:18.336Z,6.93
2023-03-20T05:29:41.556Z,7.14
2023-03-20T05:32:58.172Z,7.30
2023-03-20T05:36:16.341Z,7.44
2023-03-20T05:39:42.808Z,7.56
2023-03-20T05:42:59.978Z,7.64
2023-03-20T05:46:14.914Z,7.73
2023-03-20T05:49:34.976Z,7.83
2023-03-20T05:52:58.432Z,7.91
2023-03-20T05:56:16.735Z,7.97
2023-03-20T05:59:30.954Z,8.05
2023-03-20T06:02:48.477Z,8.09
2023-03-20T06:06:13.518Z,8.17
2023-03-20T06:09:26.575Z,8.20
2023-03-20T06:12:39.030Z,8.25
2023-03-20T06:15:51.772Z,8.30
2023-03-20T06:19:04.162Z,8.33
2023-03-20T06:22:16.735Z,8.37
2023-03-20T06:25:28.937Z,8.42
2023-03-20T06:28:41.023Z,8.42
2023-03-20T06:31:53.700Z,8.60
2023-03-20T06:35:11.940Z,9.24
2023-03-20T06:38:25.071Z,9.99
2023-03-20T06:41:37.957Z,10.37
2023-03-20T06:44:52.034Z,11.00
2023-03-20T06:48:06.370Z,11.37
2023-03-20T06:51:18.579Z,11.78
2023-03-20T06:54:32.983Z,12.23
2023-03-20T06:57:46.002Z,12.04
2023-03-20T07:01:00.205Z,12.35
2023-03-20T07:04:12.964Z,12.36
2023-03-20T07:07:26.920Z,12.18
2023-03-20T07:10:39.410Z,12.61
2023-03-20T07:13:52.044Z,12.46
2023-03-20T07:17:06.540Z,12.39
2023-03-20T07:20:20.770Z,12.42
2023-03-20T07:23:34.683Z,12.54
2023-03-20T07:26:47.286Z,12.59
2023-03-20T07:29:59.844Z,13.23
2023-03-20T07:33:12.179Z,13.49
2023-03-20T07:36:25.477Z,13.31
2023-03-20T07:39:37.752Z,13.75
2023-03-20T07:43:10.472Z,14.73
2023-03-20T07:46:41.201Z,14.98
2023-03-20T07:49:53.695Z,15.30
2023-03-20T07:53:06.066Z,14.45
2023-03-20T07:56:19.079Z,14.68
2023-03-20T07:59:31.143Z,14.60
2023-03-20T08:02:43.693Z,13.94
2023-03-20T08:05:56.269Z,14.29
2023-03-20T08:09:09.283Z,14.19
2023-03-20T08:12:21.601Z,14.17
2023-03-20T08:15:33.858Z,14.22
2023-03-20T08:18:46.720Z,14.03
2023-03-20T08:21:58.865Z,13.64
2023-03-20T08:25:13.156Z,13.48
2023-03-20T08:28:44.110Z,13.55
2023-03-20T08:31:40.747Z,14.08
2023-03-20T08:34:52.804Z,14.06
2023-03-20T08:38:05.114Z,14.79
2023-03-20T08:41:17.204Z,15.73
2023-03-20T08:44:29.462Z,15.33
2023-03-20T08:47:41.724Z,15.92
2023-03-20T08:50:53.931Z,16.25
2023-03-20T08:54:06.076Z,16.59
2023-03-20T08:57:20.792Z,16.94
2023-03-20T09:00:33.400Z,16.60
2023-03-20T09:03:45.696Z,17.09
2023-03-20T09:07:01.005Z,17.80
2023-03-20T09:10:16.094Z,18.12
2023-03-20T09:13:28.402Z,18.69
2023-03-20T09:16:40.574Z,18.44
2023-03-20T09:19:52.829Z,19.07
2023-03-20T09:23:05.506Z,19.42
2023-03-20T09:26:33.676Z,19.65
2023-03-20T09:29:46.755Z,20.44
2023-03-20T09:32:59.462Z,20.14
2023-03-20T09:36:31.073Z,20.50
2023-03-20T09:39:44.130Z,21.17
2023-03-20T09:43:04.344Z,21.77
2023-03-20T09:46:27.898Z,21.32
2023-03-20T09:49:52.860Z,19.57
2023-03-20T09:53:14.767Z,18.33
2023-03-20T09:56:31.822Z,17.78
2023-03-20T09:59:44.453Z,17.40
2023-03-20T10:03:01.084Z,16.99
2023-03-20T10:06:18.069Z,16.69
2023-03-20T10:09:31.728Z,16.38
2023-03-20T10:13:02.425Z,16.10
2023-03-20T10:16:21.753Z,16.32
2023-03-20T10:19:37.197Z,16.54
2023-03-20T10:22:53.129Z,16.21
2023-03-20T10:26:10.503Z,16.50
2023-03-20T10:29:31.795Z,16.45
2023-03-20T10:32:49.405Z,16.26
2023-03-20T10:36:12.447Z,16.27
2023-03-20T10:39:34.032Z,16.16
2023-03-20T10:42:51.448Z,16.05
2023-03-20T10:46:10.534Z,16.82
2023-03-20T10:49:29.135Z,17.54
2023-03-20T10:52:45.060Z,17.17
2023-03-20T10:55:59.986Z,17.03
2023-03-20T10:59:18.481Z,17.66
2023-03-20T11:02:34.737Z,17.96
2023-03-20T11:06:02.208Z,17.89
2023-03-20T11:09:02.045Z,17.66
2023-03-20T11:12:23.978Z,17.35
2023-03-20T11:15:39.581Z,16.90
2023-03-20T11:18:53.959Z,16.76
2023-03-20T11:22:13.022Z,17.01
2023-03-20T11:25:39.569Z,16.82
2023-03-20T11:28:59.503Z,16.39
2023-03-20T11:32:24.428Z,16.07
2023-03-20T11:35:37.871Z,15.81
2023-03-20T11:38:54.320Z,15.58
2023-03-20T11:42:08.415Z,15.52
2023-03-20T11:45:25.847Z,15.40
2023-03-20T11:48:47.010Z,15.47
2023-03-20T11:52:00.700Z,15.63
2023-03-20T11:55:28.587Z,15.47
2023-03-20T11:58:43.436Z,15.56
2023-03-20T12:01:59.138Z,15.47
2023-03-20T12:05:33.522Z,15.77
2023-03-20T12:08:50.175Z,16.46
2023-03-20T12:12:05.763Z,16.96
2023-03-20T12:15:26.494Z,17.54
2023-03-20T12:18:43.083Z,18.16
2023-03-20T12:22:03.224Z,18.13
2023-03-20T12:25:25.823Z,18.14
2023-03-20T12:28:42.892Z,18.55
2023-03-20T12:32:00.541Z,18.42
2023-03-20T12:35:17.356Z,18.58
2023-03-20T12:38:34.131Z,18.45
2023-03-20T12:41:57.230Z,18.42
2023-03-20T12:45:16.034Z,18.81
2023-03-20T12:48:49.814Z,18.57
2023-03-20T12:52:11.600Z,18.49
2023-03-20T12:55:47.834Z,17.81
2023-03-20T12:59:05.064Z,17.44
2023-03-20T13:02:30.784Z,17.08
2023-03-20T13:05:53.916Z,16.97
2023-03-20T13:09:26.631Z,16.70
2023-03-20T13:12:51.750Z,16.49
2023-03-20T13:16:16.121Z,16.40
2023-03-20T13:19:36.547Z,16.33
2023-03-20T13:22:59.249Z,16.16
2023-03-20T13:26:32.669Z,16.06
2023-03-20T13:29:52.696Z,16.25
2023-03-20T13:33:12.944Z,16.15
2023-03-20T13:36:40.746Z,16.17
2023-03-20T13:40:02.218Z,16.50
2023-03-20T13:43:25.663Z,16.76
2023-03-20T13:46:43.826Z,16.84
2023-03-20T13:50:03.796Z,17.06
2023-03-20T13:53:26.158Z,17.00
2023-03-20T13:56:47.580Z,17.08
2023-03-20T14:00:12.593Z,17.03
2023-03-20T14:03:32.147Z,17.05
2023-03-20T14:06:59.176Z,16.66
2023-03-20T14:10:46.786Z,16.67
2023-03-20T14:14:02.747Z,16.42
2023-03-20T14:17:27.836Z,16.12
2023-03-20T14:20:44.234Z,16.01
2023-03-20T14:24:04.956Z,15.92
2023-03-20T14:27:42.842Z,15.82
2023-03-20T14:30:51.717Z,15.85
2023-03-20T14:34:16.332Z,15.80
2023-03-20T14:37:53.346Z,15.65
2023-03-20T14:41:12.870Z,15.52
2023-03-20T14:44:38.770Z,15.45
2023-03-20T14:47:58.242Z,15.36
2023-03-20T14:51:32.286Z,15.27
2023-03-20T14:54:46.319Z,15.02
2023-03-20T14:57:59.147Z,14.97
2023-03-20T15:01:14.081Z,14.92
2023-03-20T15:04:43.882Z,14.78
2023-03-20T15:07:56.128Z,14.65
2023-03-20T15:11:13.567Z,14.65
2023-03-20T15:14:30.689Z,14.59
2023-03-20T15:17:47.907Z,14.55
2023-03-20T15:21:01.950Z,14.65
2023-03-20T15:24:23.152Z,14.69
2023-03-20T15:27:37.307Z,14.76
2023-03-20T15:30:53.652Z,14.74
2023-03-20T15:34:08.781Z,14.73
2023-03-20T15:37:25.890Z,14.80
2023-03-20T15:40:50.516Z,14.83
2023-03-20T15:43:56.813Z,14.82
2023-03-20T15:47:18.428Z,14.69
2023-03-20T15:50:30.743Z,14.51
2023-03-20T15:53:46.257Z,14.43
2023-03-20T15:57:02.430Z,14.38
2023-03-20T16:00:22.094Z,14.28
2023-03-20T16:03:38.343Z,14.17
2023-03-20T16:07:00.033Z,14.10
2023-03-20T16:10:22.975Z,14.05
2023-03-20T16:13:40.024Z,14.09
2023-03-20T16:16:56.429Z,14.12
2023-03-20T16:20:10.710Z,14.12
2023-03-20T16:23:34.019Z,14.09
2023-03-20T16:26:49.905Z,14.08
2023-03-20T16:30:03.114Z,14.08
2023-03-20T16:33:20.533Z,13.92
2023-03-20T16:36:39.026Z,13.91
2023-03-20T16:39:51.068Z,13.90
2023-03-20T16:43:05.592Z,13.90
2023-03-20T16:46:23.593Z,13.89
2023-03-20T16:50:23.645Z,13.86
2023-03-20T16:53:44.814Z,13.87
2023-03-20T16:57:04.038Z,13.89
2023-03-20T17:00:32.851Z,13.82
2023-03-20T17:03:52.866Z,13.78
2023-03-20T17:07:10.027Z,13.74
2023-03-20T17:10:30.813Z,13.72
2023-03-20T17:13:43.189Z,13.68
2023-03-20T17:16:59.536Z,13.65
2023-03-20T17:20:16.819Z,13.65
2023-03-20T17:23:30.038Z,13.65
2023-03-20T17:26:43.000Z,13.67
2023-03-20T17:29:56.307Z,13.67
2023-03-20T17:33:13.819Z,13.64
2023-03-20T17:36:30.656Z,13.64
2023-03-20T17:39:42.948Z,13.61
2023-03-20T17:42:55.667Z,13.55
2023-03-20T17:46:08.330Z,13.43
2023-03-20T17:49:25.115Z,13.32
2023-03-20T17:52:37.211Z,13.19
2023-03-20T17:55:49.484Z,13.19
2023-03-20T17:59:01.790Z,13.18
2023-03-20T18:02:14.861Z,13.11
2023-03-20T18:05:28.644Z,13.10
2023-03-20T18:08:40.968Z,13.03
2023-03-20T18:11:52.995Z,12.99
2023-03-20T18:15:05.680Z,12.94
2023-03-20T18:18:17.740Z,12.85
2023-03-20T18:21:30.087Z,12.78
2023-03-20T18:24:45.372Z,12.66
2023-03-20T18:27:57.848Z,12.58
2023-03-20T18:31:10.602Z,12.51
2023-03-20T18:34:23.321Z,12.38
2023-03-20T18:37:35.780Z,12.28
2023-03-20T18:40:48.224Z,12.24
2023-03-20T18:44:00.410Z,12.24
2023-03-20T18:47:13.580Z,12.23
2023-03-20T18:50:34.476Z,12.18
2023-03-20T18:53:47.160Z,12.20
2023-03-20T18:57:00.909Z,12.21
2023-03-20T19:00:25.608Z,12.20
2023-03-20T19:03:39.501Z,12.18
2023-03-20T19:06:51.790Z,12.19
2023-03-20T19:10:04.065Z,12.24
2023-03-20T19:13:18.824Z,12.24
2023-03-20T19:16:35.146Z,12.27
2023-03-20T19:19:47.717Z,12.25
2023-03-20T19:23:01.152Z,12.24
2023-03-20T19:26:21.917Z,12.22
2023-03-20T19:29:34.201Z,12.19
2023-03-20T19:32:46.418Z,12.19
2023-03-20T19:36:03.340Z,12.15
2023-03-20T19:39:16.876Z,12.06
2023-03-20T19:43:00.865Z,12.05
2023-03-20T19:45:45.698Z,11.98
2023-03-20T19:48:57.997Z,11.91
2023-03-20T19:52:10.880Z,11.84
2023-03-20T19:55:23.518Z,11.77
2023-03-20T19:58:35.748Z,11.70
2023-03-20T20:01:47.960Z,11.62
2023-03-20T20:05:00.573Z,11.55
2023-03-20T20:08:28.365Z,11.51
2023-03-20T20:11:29.290Z,11.49
2023-03-20T20:14:41.668Z,11.50
2023-03-20T20:17:54.993Z,11.51
2023-03-20T20:24:22.040Z,11.46
2023-03-20T20:27:34.716Z,11.46
2023-03-20T20:30:47.774Z,11.45
2023-03-20T20:34:51.096Z,11.46
2023-03-20T20:40:33.413Z,11.49
2023-03-20T20:44:14.476Z,11.48
2023-03-20T20:47:00.588Z,11.49
2023-03-20T20:50:15.194Z,11.46
2023-03-20T20:53:27.230Z,11.43
2023-03-20T20:56:39.417Z,11.46
2023-03-20T20:59:53.671Z,11.47
2023-03-20T21:03:06.082Z,11.45
2023-03-20T21:06:18.305Z,11.42
2023-03-20T21:09:30.485Z,11.41
2023-03-20T21:12:58.686Z,11.37
2023-03-20T21:16:06.438Z,11.38
2023-03-20T21:19:19.423Z,11.36
2023-03-20T21:22:34.112Z,11.23
2023-03-20T21:25:47.748Z,11.17
2023-03-20T21:29:00.628Z,11.14
2023-03-20T21:32:13.334Z,11.13
2023-03-20T21:35:26.590Z,11.07
2023-03-20T21:41:54.653Z,10.89
2023-03-20T21:49:23.977Z,10.73
2023-03-20T21:52:37.469Z,10.67
2023-03-20T21:55:40.995Z,10.59
2023-03-20T22:08:27.886Z,10.45
2023-03-20T22:15:03.843Z,10.40
2023-03-20T22:18:05.719Z,10.39
2023-03-20T22:27:56.620Z,10.33
2023-03-20T22:31:19.357Z,10.33
2023-03-20T22:37:52.550Z,10.30
2023-03-20T22:41:18.350Z,10.29
2023-03-20T22:44:34.014Z,10.24
2023-03-20T22:46:51.171Z,10.26
2023-03-20T22:50:03.564Z,10.27
2023-03-20T22:53:15.780Z,10.24
2023-03-20T22:56:28.358Z,10.26
2023-03-20T22:59:40.589Z,10.20
2023-03-20T23:02:54.934Z,10.20
2023-03-20T23:06:14.568Z,10.22
2023-03-20T23:09:27.230Z,10.21
2023-03-20T23:12:39.633Z,10.22
2023-03-20T23:15:52.980Z,10.18
2023-03-20T23:19:05.344Z,10.19
2023-03-20T23:22:17.749Z,10.20
2023-03-20T23:25:38.900Z,10.22
2023-03-20T23:28:46.345Z,10.25
2023-03-20T23:31:58.804Z,10.26
2023-03-20T23:35:13.123Z,10.24
2023-03-20T23:38:25.187Z,10.20
2023-03-20T23:42:03.958Z,10.25
2023-03-20T23:44:56.510Z,10.19
2023-03-20T23:48:05.759Z,10.12
2023-03-20T23:51:17.858Z,10.08
2023-03-20T23:54:29.885Z,9.98
2023-03-20T23:57:41.899Z,9.99
